Time;durP1;ratioP1;P1;durP2;ratioP2;P2;SDS_P1;SDS_P2;PMS_P1;PMS_P2;Temp;Humidity;BMP_temperature;BMP_pressure;BME280_temperature;BME280_humidity;BME280_pressure;Samples;Min_cycle;Max_cycle;Signal;HPM_P1;HPM_P2
2023/11/30 00:02:01;;;;;;;20.73;10.93;;;;;;;-2.16;100.00;100141.06;5109584;28;20398;-53
2023/11/30 00:04:29;;;;;;;17.67;10.68;;;;;;;-2.17;100.00;100147.91;5109082;28;20041;-50
2023/11/30 00:06:58;;;;;;;18.48;9.55;;;;;;;-2.18;100.00;100141.09;5108608;28;20429;-53
2023/11/30 00:09:26;;;;;;;18.92;10.00;;;;;;;-2.17;100.00;100147.91;5111094;28;20043;-54
2023/11/30 00:11:55;;;;;;;19.52;9.77;;;;;;;-2.18;100.00;100146.25;5089384;28;20070;-52
2023/11/30 00:14:23;;;;;;;19.15;10.48;;;;;;;-2.19;100.00;100135.97;5090438;28;20260;-51
2023/11/30 00:16:51;;;;;;;16.13;9.43;;;;;;;-2.17;100.00;100134.19;5108972;28;20044;-51
2023/11/30 00:19:20;;;;;;;19.15;10.38;;;;;;;-2.17;100.00;100136.78;5108885;28;20050;-52
2023/11/30 00:21:48;;;;;;;20.45;10.27;;;;;;;-2.17;100.00;100129.03;5108657;28;20060;-50
2023/11/30 00:24:16;;;;;;;19.55;11.00;;;;;;;-2.18;100.00;100135.06;5109035;28;20044;-52
2023/11/30 00:26:44;;;;;;;18.27;10.13;;;;;;;-2.18;100.00;100119.63;5089438;28;20043;-52
2023/11/30 00:29:14;;;;;;;19.50;11.57;;;;;;;-2.19;100.00;100121.34;5108465;28;20082;-51
2023/11/30 00:31:42;;;;;;;18.13;10.85;;;;;;;-2.21;100.00;100116.25;5108693;28;20039;-50
2023/11/30 00:34:10;;;;;;;20.67;10.60;;;;;;;-2.21;100.00;100118.81;5108008;28;20051;-50
2023/11/30 00:36:38;;;;;;;23.60;11.43;;;;;;;-2.21;100.00;100116.25;5111350;28;20108;-54
2023/11/30 00:39:09;;;;;;;19.05;10.02;;;;;;;-2.21;100.00;100113.66;5090312;28;20096;-50
2023/11/30 00:41:38;;;;;;;22.02;11.10;;;;;;;-2.21;100.00;100115.38;5107542;28;20059;-53
2023/11/30 00:44:06;;;;;;;17.88;9.70;;;;;;;-2.22;100.00;100111.97;5108460;28;20403;-54
2023/11/30 00:46:35;;;;;;;22.98;11.80;;;;;;;-2.26;100.00;100119.81;5108961;28;20044;-52
2023/11/30 00:49:03;;;;;;;18.92;11.02;;;;;;;-2.27;100.00;100111.22;5108626;28;20063;-54
2023/11/30 00:51:34;;;;;;;21.00;11.13;;;;;;;-2.27;100.00;100115.53;5108647;28;20111;-52
2023/11/30 00:54:02;;;;;;;20.30;10.77;;;;;;;-2.28;100.00;100117.25;5109414;28;20485;-49
2023/11/30 00:56:31;;;;;;;19.23;10.10;;;;;;;-2.28;100.00;100104.38;5095264;28;20155;-54
2023/11/30 00:59:01;;;;;;;19.75;10.85;;;;;;;-2.29;100.00;100107.84;5113873;28;20050;-50
2023/11/30 01:01:29;;;;;;;22.30;10.02;;;;;;;-2.28;100.00;100106.94;5112321;28;20054;-53
2023/11/30 01:03:59;;;;;;;19.88;10.65;;;;;;;-2.28;100.00;100109.53;5115017;28;20521;-52
2023/11/30 01:06:27;;;;;;;16.45;8.80;;;;;;;-2.28;100.00;100104.38;5114190;28;20047;-52
2023/11/30 01:08:55;;;;;;;18.25;9.60;;;;;;;-2.28;100.00;100104.38;5112566;28;20507;-51
2023/11/30 01:11:23;;;;;;;15.50;9.57;;;;;;;-2.26;100.00;100106.94;5109192;28;20196;-53
2023/11/30 01:13:54;;;;;;;18.60;10.57;;;;;;;-2.26;100.00;100107.78;5112187;28;20100;-53
2023/11/30 01:16:23;;;;;;;16.73;9.88;;;;;;;-2.25;100.00;100104.31;5111768;28;20539;-51
2023/11/30 01:18:51;;;;;;;18.83;9.68;;;;;;;-2.25;100.00;100104.31;5110971;28;20473;-51
2023/11/30 01:21:21;;;;;;;19.35;10.75;;;;;;;-2.24;100.00;100103.41;5110467;28;20074;-53
2023/11/30 01:23:51;;;;;;;18.17;10.02;;;;;;;-2.21;100.00;100105.06;5112421;28;20048;-50
2023/11/30 01:26:19;;;;;;;17.48;9.80;;;;;;;-2.20;100.00;100104.19;5110572;28;20054;-46
2023/11/30 01:28:48;;;;;;;18.00;10.50;;;;;;;-2.19;100.00;100105.91;5111952;28;20048;-51
2023/11/30 01:31:16;;;;;;;18.58;10.18;;;;;;;-2.17;100.00;100098.97;5111196;28;20372;-49
2023/11/30 01:33:44;;;;;;;21.63;10.60;;;;;;;-2.16;100.00;100094.66;5113021;28;20398;-47
2023/11/30 01:36:12;;;;;;;19.48;10.40;;;;;;;-2.14;100.00;100100.63;5114986;28;20047;-47
2023/11/30 01:38:42;;;;;;;28.23;10.65;;;;;;;-2.13;100.00;100107.47;5114515;28;20134;-48
2023/11/30 01:41:10;;;;;;;43.35;9.82;;;;;;;-2.12;100.00;100096.28;5114199;28;20101;-48
2023/11/30 01:43:38;;;;;;;31.08;9.20;;;;;;;-2.12;100.00;100098.88;5114390;28;20040;-49
2023/11/30 01:46:07;;;;;;;14.88;8.55;;;;;;;-2.12;100.00;100102.28;5114725;28;20036;-47
2023/11/30 01:48:35;;;;;;;21.30;10.38;;;;;;;-2.10;100.00;100110.84;5113079;28;20055;-47
2023/11/30 01:51:07;;;;;;;21.52;9.18;;;;;;;-2.12;100.00;100115.16;5114248;28;20128;-47
2023/11/30 01:53:36;;;;;;;28.83;10.95;;;;;;;-2.14;100.00;100110.94;5111553;28;20057;-46
2023/11/30 01:56:08;;;;;;;52.47;11.10;;;;;;;-2.07;100.00;100107.34;5110779;28;20051;-46
2023/11/30 01:58:37;;;;;;;15.15;8.95;;;;;;;-2.12;100.00;100101.44;5114692;28;20048;-46
2023/11/30 02:01:07;;;;;;;16.13;8.68;;;;;;;-2.14;100.00;100095.47;5114323;28;20495;-47
2023/11/30 02:03:37;;;;;;;13.90;8.52;;;;;;;-2.14;100.00;100095.47;5113047;28;20059;-46
2023/11/30 02:06:05;;;;;;;15.13;8.88;;;;;;;-2.14;100.00;100092.88;5113842;28;20044;-49
2023/11/30 02:08:35;;;;;;;16.40;9.65;;;;;;;-2.14;100.00;100087.72;5110506;28;20142;-47
2023/11/30 02:11:03;;;;;;;13.73;8.82;;;;;;;-2.14;100.00;100080.88;5110917;28;20498;-47
2023/11/30 02:13:33;;;;;;;14.15;8.75;;;;;;;-2.12;100.00;100079.09;5114149;28;20113;-46
2023/11/30 02:16:01;;;;;;;16.30;8.90;;;;;;;-2.10;100.00;100084.19;5114095;28;20134;-48
2023/11/30 02:18:29;;;;;;;17.27;8.48;;;;;;;-2.10;100.00;100071.31;5113691;28;20051;-47
2023/11/30 02:20:57;;;;;;;18.00;9.23;;;;;;;-2.11;100.00;100079.94;5113772;28;20489;-46
2023/11/30 02:23:27;;;;;;;15.15;8.73;;;;;;;-2.11;100.00;100078.22;5114151;28;20039;-49
2023/11/30 02:25:55;;;;;;;19.08;9.10;;;;;;;-2.10;100.00;100071.31;5113908;28;20101;-46
2023/11/30 02:28:23;;;;;;;14.95;8.63;;;;;;;-2.10;100.00;100071.31;5113895;28;20066;-48
2023/11/30 02:30:51;;;;;;;15.82;9.15;;;;;;;-2.13;100.00;100066.25;5113783;28;20100;-46
2023/11/30 02:33:22;;;;;;;17.33;9.40;;;;;;;-2.15;100.00;100055.97;5113586;28;20050;-47
2023/11/30 02:35:50;;;;;;;17.45;8.90;;;;;;;-2.13;100.00;100056.78;5113611;28;20058;-50
2023/11/30 02:38:18;;;;;;;15.52;9.48;;;;;;;-2.10;100.00;100056.72;5113411;28;20044;-46
2023/11/30 02:40:48;;;;;;;24.25;11.05;;;;;;;-2.09;100.00;100060.97;5095020;28;20048;-49
2023/11/30 02:43:16;;;;;;;18.10;9.73;;;;;;;-2.09;100.00;100055.81;5113383;28;20652;-48
2023/11/30 02:45:44;;;;;;;17.67;10.90;;;;;;;-2.06;100.00;100054.88;5113123;28;20086;-48
2023/11/30 02:48:12;;;;;;;46.15;12.05;;;;;;;-2.01;100.00;100057.38;5113074;28;20109;-48
2023/11/30 02:50:40;;;;;;;19.15;10.05;;;;;;;-2.05;100.00;100048.84;5113403;28;20043;-47
2023/11/30 02:53:09;;;;;;;19.58;9.93;;;;;;;-2.05;100.00;100051.44;5113260;28;20054;-49
2023/11/30 02:55:37;;;;;;;19.38;9.45;;;;;;;-2.05;100.00;100051.44;5113231;28;20490;-46
2023/11/30 02:58:06;;;;;;;18.50;10.27;;;;;;;-2.05;100.00;100054.00;5112880;28;20128;-46
2023/11/30 03:00:34;;;;;;;18.08;9.85;;;;;;;-2.02;100.00;100056.50;5109801;28;20056;-49
2023/11/30 03:03:03;;;;;;;19.55;10.55;;;;;;;-2.01;100.00;100059.94;5111132;28;20356;-46
2023/11/30 03:05:32;;;;;;;16.17;9.60;;;;;;;-1.99;100.00;100059.03;5112907;28;20075;-45
2023/11/30 03:08:00;;;;;;;17.08;9.85;;;;;;;-1.98;100.00;100060.69;5112878;28;20063;-46
2023/11/30 03:10:28;;;;;;;16.75;9.93;;;;;;;-1.97;100.00;100059.81;5108973;28;20055;-48
2023/11/30 03:12:57;;;;;;;17.15;10.35;;;;;;;-1.94;100.00;100057.16;5109801;28;20047;-48
2023/11/30 03:15:26;;;;;;;18.13;10.57;;;;;;;-1.91;100.00;100051.94;5113014;28;20126;-46
2023/11/30 03:17:54;;;;;;;15.85;9.65;;;;;;;-1.88;100.00;100048.44;5112967;28;20486;-47
2023/11/30 03:20:23;;;;;;;19.45;11.63;;;;;;;-1.84;100.00;100051.75;5112745;28;20048;-45
2023/11/30 03:22:51;;;;;;;20.98;11.10;;;;;;;-1.83;100.00;100043.16;5094411;28;20121;-46
2023/11/30 03:25:19;;;;;;;18.10;10.45;;;;;;;-1.82;100.00;100039.69;5112544;28;20449;-49
2023/11/30 03:27:47;;;;;;;19.88;11.10;;;;;;;-1.81;100.00;100034.47;5112549;28;20050;-46
2023/11/30 03:30:15;;;;;;;18.00;10.23;;;;;;;-1.79;100.00;100034.44;5112531;28;20044;-47
2023/11/30 03:32:45;;;;;;;20.85;11.10;;;;;;;-1.77;100.00;100028.38;5111022;28;20058;-49
2023/11/30 03:35:13;;;;;;;17.73;10.20;;;;;;;-1.74;100.00;100032.59;5108753;28;20141;-46
2023/11/30 03:37:43;;;;;;;19.15;11.05;;;;;;;-1.71;100.00;100027.34;5090467;28;20101;-46
2023/11/30 03:40:12;;;;;;;17.13;10.68;;;;;;;-1.68;100.00;100032.41;5109885;28;20051;-48
2023/11/30 03:42:41;;;;;;;16.58;9.77;;;;;;;-1.68;100.00;100026.41;5112374;28;20043;-46
2023/11/30 03:45:10;;;;;;;19.13;10.82;;;;;;;-1.62;100.00;100041.69;5112276;28;20127;-50
2023/11/30 03:47:38;;;;;;;18.77;11.05;;;;;;;-1.60;100.00;100050.25;5093982;28;20051;-47
2023/11/30 03:50:08;;;;;;;17.92;11.18;;;;;;;-1.57;100.00;100037.28;5112588;28;20589;-49
2023/11/30 03:52:37;;;;;;;18.88;10.85;;;;;;;-1.54;100.00;100039.75;5108819;28;20090;-49
2023/11/30 03:55:08;;;;;;;18.00;10.48;;;;;;;-1.54;100.00;100043.19;5108923;28;20067;-47
2023/11/30 03:57:36;;;;;;;18.08;11.02;;;;;;;-1.51;100.00;100038.81;5090010;28;20055;-48
2023/11/30 04:00:07;;;;;;;19.27;11.48;;;;;;;-1.51;100.00;100044.84;5092536;28;20051;-51
2023/11/30 04:02:36;;;;;;;18.03;11.40;;;;;;;-1.49;100.00;100044.81;5112234;28;20047;-49
2023/11/30 04:05:05;;;;;;;20.27;11.30;;;;;;;-1.47;100.00;100040.44;5111921;28;21051;-47
2023/11/30 04:07:36;;;;;;;19.90;11.73;;;;;;;-1.41;100.00;100035.13;5112000;28;20043;-48
2023/11/30 04:10:05;;;;;;;20.92;11.70;;;;;;;-1.41;100.00;100037.69;5111821;28;20097;-48
2023/11/30 04:12:35;;;;;;;18.08;11.10;;;;;;;-1.41;100.00;100030.78;5112112;28;20042;-48
2023/11/30 04:15:05;;;;;;;17.55;11.30;;;;;;;-1.42;100.00;100033.41;5109619;28;20060;-46
2023/11/30 04:17:35;;;;;;;19.75;11.32;;;;;;;-1.42;100.00;100031.69;5108964;28;20043;-46
2023/11/30 04:20:04;;;;;;;19.50;11.48;;;;;;;-1.38;100.00;100024.69;5111645;28;20054;-46
2023/11/30 04:22:33;;;;;;;19.58;11.65;;;;;;;-1.39;100.00;100020.41;5111984;28;20143;-47
2023/11/30 04:25:05;;;;;;;18.92;11.52;;;;;;;-1.41;100.00;100022.22;5112029;28;20498;-47
2023/11/30 04:27:34;;;;;;;18.30;10.80;;;;;;;-1.40;100.00;100027.31;5111793;28;20093;-46
2023/11/30 04:30:03;;;;;;;20.15;11.85;;;;;;;-1.40;100.00;100024.75;5111627;28;20130;-49
2023/11/30 04:32:31;;;;;;;19.85;11.85;;;;;;;-1.39;100.00;100028.16;5115583;28;20100;-46
2023/11/30 04:35:00;;;;;;;18.95;11.23;;;;;;;-1.38;100.00;100025.56;5115833;28;20130;-46
2023/11/30 04:37:28;;;;;;;18.90;11.27;;;;;;;-1.35;100.00;100027.19;5116133;28;20041;-48
2023/11/30 04:39:58;;;;;;;18.80;11.57;;;;;;;-1.34;100.00;100028.03;5115908;28;20047;-47
2023/11/30 04:42:28;;;;;;;21.85;12.02;;;;;;;-1.33;100.00;100022.84;5115880;28;20533;-47
2023/11/30 04:44:56;;;;;;;19.52;11.20;;;;;;;-1.32;100.00;100015.94;5115941;28;20482;-46
2023/11/30 04:47:24;;;;;;;19.23;11.95;;;;;;;-1.32;100.00;100016.78;5115627;28;20517;-47
2023/11/30 04:49:52;;;;;;;16.98;10.73;;;;;;;-1.31;100.00;100020.22;5115457;28;20051;-48
2023/11/30 04:52:21;;;;;;;19.73;12.07;;;;;;;-1.31;100.00;100012.47;5113430;28;20097;-46
2023/11/30 04:54:49;;;;;;;18.38;11.40;;;;;;;-1.31;100.00;100013.34;5112722;28;20044;-47
2023/11/30 04:57:17;;;;;;;18.85;11.35;;;;;;;-1.31;100.00;100021.06;5110962;28;20047;-47
2023/11/30 04:59:47;;;;;;;18.33;11.35;;;;;;;-1.31;100.00;100020.22;5113257;28;20452;-47
2023/11/30 05:02:15;;;;;;;19.50;11.70;;;;;;;-1.31;100.00;100022.78;5115491;28;20052;-46
2023/11/30 05:04:43;;;;;;;17.80;11.20;;;;;;;-1.31;100.00;100026.22;5115406;28;20043;-48
2023/11/30 05:07:12;;;;;;;18.60;10.90;;;;;;;-1.31;100.00;100030.53;5115141;28;20047;-47
2023/11/30 05:09:40;;;;;;;17.35;10.65;;;;;;;-1.29;100.00;100032.19;5115120;28;20052;-47
2023/11/30 05:12:08;;;;;;;18.65;11.60;;;;;;;-1.29;100.00;100027.03;5114766;28;20046;-45
2023/11/30 05:14:36;;;;;;;18.30;11.05;;;;;;;-1.30;100.00;100025.31;5114757;28;20047;-47
2023/11/30 05:17:06;;;;;;;21.40;11.68;;;;;;;-1.31;100.00;100023.66;5114907;28;20048;-50
2023/11/30 05:19:34;;;;;;;20.85;12.32;;;;;;;-1.30;100.00;100020.16;5115214;28;20403;-51
2023/11/30 05:22:02;;;;;;;20.92;11.80;;;;;;;-1.27;100.00;100019.22;5115010;28;20058;-49
2023/11/30 05:24:30;;;;;;;20.10;11.32;;;;;;;-1.24;100.00;100013.97;5112784;28;20522;-46
2023/11/30 05:26:58;;;;;;;19.48;11.30;;;;;;;-1.25;100.00;100015.72;5111380;28;20521;-46
2023/11/30 05:29:26;;;;;;;18.67;12.00;;;;;;;-1.25;100.00;100022.63;5115002;28;20048;-47
2023/11/30 05:31:55;;;;;;;19.33;12.02;;;;;;;-1.25;100.00;100020.03;5114841;28;20138;-49
2023/11/30 05:34:24;;;;;;;20.45;12.65;;;;;;;-1.29;100.00;100021.84;5114931;28;20057;-47
2023/11/30 05:36:52;;;;;;;21.58;12.98;;;;;;;-1.28;100.00;100026.13;5114692;28;20130;-46
2023/11/30 05:39:21;;;;;;;21.23;12.95;;;;;;;-1.25;100.00;100022.63;5115038;28;20514;-48
2023/11/30 05:41:49;;;;;;;20.50;13.15;;;;;;;-1.24;100.00;100021.72;5113925;28;20499;-51
2023/11/30 05:44:20;;;;;;;24.02;14.32;;;;;;;-1.19;100.00;100019.84;5113699;28;20043;-50
2023/11/30 05:46:50;;;;;;;22.73;13.32;;;;;;;-1.20;100.00;100015.56;5114386;28;20502;-46
2023/11/30 05:49:18;;;;;;;21.38;13.20;;;;;;;-1.21;100.00;100017.31;5114255;28;20039;-46
2023/11/30 05:51:48;;;;;;;24.05;14.23;;;;;;;-1.22;100.00;100010.47;5114319;28;20035;-50
2023/11/30 05:54:16;;;;;;;23.83;13.57;;;;;;;-1.22;100.00;100010.47;5114145;28;20051;-47
2023/11/30 05:56:44;;;;;;;26.38;15.32;;;;;;;-1.23;100.00;100003.63;5114016;28;20035;-48
2023/11/30 05:59:13;;;;;;;22.63;13.82;;;;;;;-1.24;100.00;100011.38;5114467;28;20043;-49
2023/11/30 06:01:41;;;;;;;22.20;13.90;;;;;;;-1.25;100.00;100015.72;5114239;28;20051;-48
2023/11/30 06:04:10;;;;;;;21.15;13.18;;;;;;;-1.26;100.00;100019.19;5114209;28;20466;-46
2023/11/30 06:06:38;;;;;;;22.48;13.88;;;;;;;-1.23;100.00;100023.41;5114114;28;20128;-50
2023/11/30 06:09:08;;;;;;;25.27;14.15;;;;;;;-1.28;100.00;100018.41;5095768;28;20047;-48
2023/11/30 06:11:36;;;;;;;21.92;14.30;;;;;;;-1.30;100.00;100012.41;5114168;28;20073;-52
2023/11/30 06:14:04;;;;;;;22.88;13.98;;;;;;;-1.30;100.00;100017.59;5095724;28;20452;-53
2023/11/30 06:16:32;;;;;;;21.65;13.80;;;;;;;-1.29;100.00;100023.59;5111107;28;20105;-49
2023/11/30 06:19:00;;;;;;;21.55;13.43;;;;;;;-1.30;100.00;100027.91;5111295;28;20542;-54
2023/11/30 06:21:29;;;;;;;21.20;13.30;;;;;;;-1.29;100.00;100034.75;5110438;28;20044;-50
2023/11/30 06:23:57;;;;;;;21.25;13.30;;;;;;;-1.30;100.00;100034.81;5111361;28;20122;-50
2023/11/30 06:26:27;;;;;;;22.90;13.32;;;;;;;-1.24;100.00;100032.03;5113576;28;20478;-50
2023/11/30 06:28:55;;;;;;;21.27;13.98;;;;;;;-1.28;100.00;100041.63;5110945;28;20063;-53
2023/11/30 06:31:23;;;;;;;22.50;12.98;;;;;;;-1.28;100.00;100041.63;5111581;28;20093;-51
2023/11/30 06:33:51;;;;;;;23.45;13.63;;;;;;;-1.28;100.00;100043.34;5113546;28;20040;-51
2023/11/30 06:36:19;;;;;;;22.45;13.75;;;;;;;-1.29;100.00;100047.66;5111122;28;20043;-52
2023/11/30 06:38:50;;;;;;;20.98;13.27;;;;;;;-1.27;100.00;100048.47;5092461;28;20048;-51
2023/11/30 06:41:18;;;;;;;22.92;13.68;;;;;;;-1.24;100.00;100043.22;5112177;28;20482;-51
2023/11/30 06:43:47;;;;;;;21.60;13.15;;;;;;;-1.18;100.00;100043.94;5110080;28;20043;-50
2023/11/30 06:46:20;;;;;;;21.95;13.75;;;;;;;-1.17;100.00;100053.34;5110266;28;20047;-52
2023/11/30 06:48:48;;;;;;;22.45;13.07;;;;;;;-1.11;100.00;100050.59;5112170;28;20039;-50
2023/11/30 06:51:17;;;;;;;22.52;13.60;;;;;;;-1.11;100.00;100048.84;5113580;28;20053;-54
2023/11/30 06:53:45;;;;;;;24.85;13.15;;;;;;;-1.09;100.00;100046.22;5112966;28;20047;-51
2023/11/30 06:56:13;;;;;;;22.77;13.63;;;;;;;-1.06;100.00;100052.16;5112555;28;20558;-54
2023/11/30 06:58:41;;;;;;;20.30;12.98;;;;;;;-1.02;100.00;100051.16;5110066;28;20040;-50
2023/11/30 07:01:11;;;;;;;21.92;13.18;;;;;;;-1.02;100.00;100053.75;5111506;28;20051;-54
2023/11/30 07:03:39;;;;;;;21.00;12.70;;;;;;;-0.96;100.00;100052.72;5110167;28;20035;-51
2023/11/30 07:06:10;;;;;;;20.75;13.02;;;;;;;-0.97;100.00;100055.34;5109305;28;20138;-54
2023/11/30 07:08:39;;;;;;;23.30;13.07;;;;;;;-0.96;100.00;100054.47;5112618;28;20117;-53
2023/11/30 07:11:08;;;;;;;21.23;12.80;;;;;;;-0.93;100.00;100056.94;5108805;28;20071;-52
2023/11/30 07:13:36;;;;;;;23.65;13.63;;;;;;;-0.94;100.00;100056.09;5111394;28;20047;-53
2023/11/30 07:16:05;;;;;;;21.80;12.73;;;;;;;-0.89;100.00;100041.28;5110968;28;20053;-56
2023/11/30 07:18:36;;;;;;;22.67;13.77;;;;;;;-0.91;100.00;100042.25;5110021;28;20051;-51
2023/11/30 07:21:05;;;;;;;22.85;13.82;;;;;;;-0.90;100.00;100042.22;5109871;28;20057;-51
2023/11/30 07:23:33;;;;;;;23.95;13.38;;;;;;;-0.91;100.00;100040.50;5112852;28;20096;-50
2023/11/30 07:26:02;;;;;;;24.05;12.60;;;;;;;-0.90;100.00;100041.34;5112684;28;20052;-51
2023/11/30 07:28:32;;;;;;;20.85;13.43;;;;;;;-0.88;100.00;100043.00;5112596;28;20059;-50
2023/11/30 07:31:00;;;;;;;20.98;12.45;;;;;;;-0.87;100.00;100044.69;5112642;28;20043;-51
2023/11/30 07:33:29;;;;;;;21.73;13.57;;;;;;;-0.86;100.00;100048.13;5093554;28;20058;-49
2023/11/30 07:35:58;;;;;;;20.00;12.45;;;;;;;-0.84;100.00;100048.09;5108091;28;20087;-52
2023/11/30 07:38:27;;;;;;;22.13;12.93;;;;;;;-0.78;100.00;100053.06;5109238;28;20039;-50
2023/11/30 07:40:56;;;;;;;20.17;12.50;;;;;;;-0.80;100.00;100053.09;5112517;28;20036;-52
2023/11/30 07:43:24;;;;;;;23.15;14.38;;;;;;;-0.79;100.00;100052.22;5112445;28;20071;-53
2023/11/30 07:45:52;;;;;;;23.00;13.52;;;;;;;-0.79;100.00;100048.78;5109111;28;20130;-51
2023/11/30 07:48:20;;;;;;;23.83;14.35;;;;;;;-0.79;100.00;100059.09;5091066;28;20039;-52
2023/11/30 07:50:49;;;;;;;25.80;13.90;;;;;;;-0.75;100.00;100060.69;5110680;28;20040;-50
2023/11/30 07:53:19;;;;;;;25.83;14.85;;;;;;;-0.78;100.00;100059.06;5107876;28;20047;-51
2023/11/30 07:55:47;;;;;;;26.42;14.88;;;;;;;-0.77;100.00;100059.91;5111283;28;20513;-51
2023/11/30 07:58:15;;;;;;;25.30;13.95;;;;;;;-0.74;100.00;100062.38;5108999;28;20100;-53
2023/11/30 08:00:43;;;;;;;26.17;14.45;;;;;;;-0.74;100.00;100059.81;5109315;28;20039;-53
2023/11/30 08:03:11;;;;;;;27.00;16.08;;;;;;;-0.74;100.00;100052.91;5093832;28;20541;-50
2023/11/30 08:05:39;;;;;;;22.13;13.65;;;;;;;-0.69;100.00;100052.78;5091242;28;20051;-51
2023/11/30 08:08:09;;;;;;;25.83;14.18;;;;;;;-0.72;100.00;100052.88;5108939;28;20059;-52
2023/11/30 08:10:38;;;;;;;29.42;15.18;;;;;;;-0.68;100.00;100052.72;5108051;28;20074;-50
2023/11/30 08:13:07;;;;;;;29.10;15.15;;;;;;;-0.70;100.00;100054.50;5108432;28;20039;-54
2023/11/30 08:15:35;;;;;;;27.10;15.35;;;;;;;-0.74;100.00;100052.91;5109930;28;20735;-52
2023/11/30 08:18:07;;;;;;;28.90;16.38;;;;;;;-0.73;100.00;100064.91;5110373;28;20371;-52
2023/11/30 08:20:39;;;;;;;26.55;15.93;;;;;;;-0.70;100.00;100064.00;5108857;28;20127;-53
2023/11/30 08:23:07;;;;;;;27.90;15.82;;;;;;;-0.71;100.00;100072.63;5111138;28;20387;-52
2023/11/30 08:25:35;;;;;;;25.38;15.90;;;;;;;-0.70;100.00;100084.66;5112083;28;20054;-52
2023/11/30 08:28:05;;;;;;;26.58;15.15;;;;;;;-0.70;100.00;100072.56;5111903;28;20138;-52
2023/11/30 08:30:33;;;;;;;29.88;16.45;;;;;;;-0.70;100.00;100074.31;5111934;28;20047;-52
2023/11/30 08:33:03;;;;;;;23.83;13.50;;;;;;;-0.64;100.00;100076.72;5110198;28;20040;-52
2023/11/30 08:35:33;;;;;;;30.52;15.90;;;;;;;-0.62;100.00;100072.34;5108907;28;20043;-52
2023/11/30 08:38:02;;;;;;;31.33;15.98;;;;;;;-0.60;100.00;100074.88;5090701;28;20410;-52
2023/11/30 08:40:30;;;;;;;27.55;15.85;;;;;;;-0.54;100.00;100074.69;5109257;28;20499;-52
2023/11/30 08:42:58;;;;;;;32.80;17.67;;;;;;;-0.52;100.00;100073.75;5111367;28;20047;-51
2023/11/30 08:45:28;;;;;;;29.38;15.63;;;;;;;-0.49;100.00;100072.81;5111440;28;20118;-53
2023/11/30 08:47:56;;;;;;;28.25;16.40;;;;;;;-0.50;100.00;100071.13;5112026;28;20506;-53
2023/11/30 08:50:24;;;;;;;29.60;16.33;;;;;;;-0.52;100.00;100062.56;5111590;28;20036;-53
2023/11/30 08:52:52;;;;;;;29.50;16.50;;;;;;;-0.48;100.00;100068.50;5108548;28;20035;-52
2023/11/30 08:55:20;;;;;;;32.10;16.90;;;;;;;-0.48;100.00;100058.97;5109402;28;20049;-53
2023/11/30 08:57:48;;;;;;;29.63;16.45;;;;;;;-0.49;100.00;100056.44;5111554;28;20119;-50
2023/11/30 09:00:17;;;;;;;32.75;17.40;;;;;;;-0.45;100.00;100060.63;5111589;28;20039;-50
2023/11/30 09:02:49;;;;;;;32.15;16.90;;;;;;;-0.41;100.00;100059.63;5111588;28;20036;-49
2023/11/30 09:05:18;;;;;;;29.38;16.50;;;;;;;-0.38;100.00;100054.41;5093192;28;20047;-54
2023/11/30 09:07:46;;;;;;;33.05;17.10;;;;;;;-0.36;100.00;100057.75;5092935;28;20059;-53
2023/11/30 09:10:14;;;;;;;30.40;17.17;;;;;;;-0.36;100.00;100048.25;5111256;28;20063;-51
2023/11/30 09:12:45;;;;;;;32.28;17.35;;;;;;;-0.32;100.00;100049.00;5111416;28;20144;-49
2023/11/30 09:15:14;;;;;;;31.73;17.60;;;;;;;-0.26;100.00;100047.97;5111437;28;20047;-50
2023/11/30 09:17:42;;;;;;;31.17;17.17;;;;;;;-0.25;100.00;100052.25;5113857;28;20052;-53
2023/11/30 09:20:12;;;;;;;34.88;17.63;;;;;;;-0.23;100.00;100053.88;5115198;28;20522;-51
2023/11/30 09:22:40;;;;;;;32.70;18.30;;;;;;;-0.21;100.00;100059.81;5115412;28;20126;-52
2023/11/30 09:25:10;;;;;;;33.10;18.00;;;;;;;-0.19;100.00;100052.88;5115155;28;20063;-52
2023/11/30 09:27:38;;;;;;;31.02;16.48;;;;;;;-0.16;100.00;100054.53;5115178;28;20126;-51
2023/11/30 09:30:09;;;;;;;31.63;16.48;;;;;;;-0.13;100.00;100054.41;5114826;28;20135;-53
2023/11/30 09:32:37;;;;;;;29.65;17.98;;;;;;;-0.09;100.00;100043.06;5095563;28;20105;-52
2023/11/30 09:35:06;;;;;;;31.23;18.05;;;;;;;-0.07;100.00;100048.19;5110843;28;20044;-51
2023/11/30 09:37:36;;;;;;;32.20;16.40;;;;;;;-0.02;100.00;100051.47;5111449;28;20488;-52
2023/11/30 09:40:06;;;;;;;31.00;16.25;;;;;;;0.02;100.00;100045.28;5111672;28;20075;-51
2023/11/30 09:42:34;;;;;;;37.42;18.85;;;;;;;0.11;100.00;100045.00;5114099;28;20050;-54
2023/11/30 09:45:04;;;;;;;32.10;16.45;;;;;;;0.12;100.00;100054.44;5114592;28;20047;-52
2023/11/30 09:47:32;;;;;;;33.78;17.88;;;;;;;0.17;100.00;100046.50;5114839;28;20051;-51
2023/11/30 09:50:01;;;;;;;37.10;21.13;;;;;;;0.18;100.00;100043.03;5114468;28;20055;-52
2023/11/30 09:52:31;;;;;;;39.70;19.95;;;;;;;0.26;100.00;100051.38;5114843;28;20539;-54
2023/11/30 09:55:00;;;;;;;37.03;19.73;;;;;;;0.29;100.00;100045.25;5114358;28;20047;-52
2023/11/30 09:57:29;;;;;;;39.08;19.77;;;;;;;0.35;100.00;100049.34;5091182;28;20569;-53
2023/11/30 09:59:58;;;;;;;38.92;19.80;;;;;;;0.37;100.00;100044.97;5112252;28;20051;-54
2023/11/30 10:02:28;;;;;;;42.13;21.35;;;;;;;0.39;100.00;100041.41;5114596;28;20104;-54
2023/11/30 10:04:57;;;;;;;42.45;21.23;;;;;;;0.45;100.00;100048.13;5112524;28;20050;-54
2023/11/30 10:07:25;;;;;;;40.47;20.60;;;;;;;0.51;100.00;100040.16;5092020;28;20482;-54
2023/11/30 10:09:57;;;;;;;42.55;20.77;;;;;;;0.54;100.00;100036.59;5114055;28;20561;-54
2023/11/30 10:12:26;;;;;;;40.67;20.52;;;;;;;0.49;100.00;100035.03;5114484;28;20486;-53
2023/11/30 10:15:00;;;;;;;42.92;21.95;;;;;;;0.56;100.00;100027.03;5114132;28;20054;-53
2023/11/30 10:17:29;;;;;;;41.47;21.92;;;;;;;0.61;100.00;100025.13;5114061;28;20378;-52
2023/11/30 10:20:00;;;;;;;41.63;21.58;;;;;;;0.64;100.00;100025.88;5114203;28;20367;-55
2023/11/30 10:22:28;;;;;;;38.45;21.50;;;;;;;0.72;100.00;100030.72;5114035;28;20048;-53
2023/11/30 10:24:58;;;;;;;41.40;20.95;;;;;;;0.76;100.00;100024.53;5113777;28;20093;-52
2023/11/30 10:27:32;;;;;;;37.60;20.80;;;;;;;0.82;100.00;100037.25;5113959;28;20572;-54
2023/11/30 10:30:01;;;;;;;38.97;19.15;;;;;;;0.81;100.00;100034.75;5112852;28;20040;-53
2023/11/30 10:32:35;;;;;;;41.50;19.93;;;;;;;0.80;100.00;100033.88;5113659;28;20062;-54
2023/11/30 10:35:06;;;;;;;36.20;20.35;;;;;;;0.81;100.00;100027.81;5110804;28;20086;-53
2023/11/30 10:37:41;;;;;;;39.28;20.63;;;;;;;0.84;100.00;100019.91;5111881;28;20066;-52
2023/11/30 10:40:10;;;;;;;43.90;23.60;;;;;;;0.86;100.00;100013.84;5113807;28;20035;-55
2023/11/30 10:42:41;;;;;;;41.92;21.55;;;;;;;0.92;100.00;100018.81;5095319;28;20059;-46
2023/11/30 10:45:12;;;;;;;46.00;23.95;;;;;;;0.91;100.00;100007.59;5113585;28;20376;-48
2023/11/30 10:47:41;;;;;;;45.33;23.85;;;;;;;0.96;100.00;100012.59;5113535;28;20097;-48
2023/11/30 10:50:11;;;;;;;43.13;22.58;;;;;;;0.97;100.00;100017.72;5094912;28;20081;-48
2023/11/30 10:52:43;;;;;;;39.58;22.80;;;;;;;0.96;100.00;100015.19;5095147;28;20040;-49
2023/11/30 10:55:14;;;;;;;42.10;22.08;;;;;;;0.98;100.00;100018.53;5095134;28;20044;-52
2023/11/30 10:57:46;;;;;;;39.50;21.70;;;;;;;1.03;100.00;100018.38;5113369;28;20575;-47
2023/11/30 11:00:16;;;;;;;43.42;23.45;;;;;;;1.03;100.00;100016.63;5113216;28;20036;-47
2023/11/30 11:02:46;;;;;;;44.58;23.13;;;;;;;0.97;100.00;100009.94;5113283;28;20363;-47
2023/11/30 11:05:17;;;;;;;45.00;23.10;;;;;;;1.01;100.00;100016.69;5113128;28;20506;-49
2023/11/30 11:07:46;;;;;;;47.58;23.48;;;;;;;1.04;100.00;100013.16;5113061;28;20054;-51
2023/11/30 11:10:22;;;;;;;41.97;22.60;;;;;;;1.08;100.00;100016.44;5112978;28;20514;-54
2023/11/30 11:12:52;;;;;;;44.42;23.75;;;;;;;1.09;100.00;100015.53;5112925;28;20039;-53